Time;durP1;ratioP1;P1;durP2;ratioP2;P2;SDS_P1;SDS_P2;PMS_P1;PMS_P2;Temp;Humidity;BMP_temperature;BMP_pressure;BME280_temperature;BME280_humidity;BME280_pressure;Samples;Min_cycle;Max_cycle;Signal;HPM_P1;HPM_P2
2022/04/02 00:01:39;;;;;;;4.10;1.67;;;2.00;1.00;;;;;;5090543;28;20198;-71
2022/04/02 00:04:06;;;;;;;3.97;2.07;;;2.10;1.00;;;;;;5091098;28;20194;-72
2022/04/02 00:06:33;;;;;;;4.10;1.93;;;2.20;1.00;;;;;;5090986;28;20209;-72
2022/04/02 00:09:02;;;;;;;2.67;2.07;;;2.10;1.00;;;;;;5084777;28;20194;-72
2022/04/02 00:11:29;;;;;;;3.43;1.70;;;2.10;94.70;;;;;;5090609;28;20292;-71
2022/04/02 00:13:56;;;;;;;3.97;2.20;;;2.20;1.00;;;;;;5090609;28;20198;-72
2022/04/02 00:16:23;;;;;;;3.60;2.33;;;2.10;1.00;;;;;;5080378;28;20212;-71
2022/04/02 00:18:50;;;;;;;4.03;1.90;;;2.10;1.00;;;;;;5094027;28;20674;-71
2022/04/02 00:21:17;;;;;;;3.90;1.70;;;2.00;1.00;;;;;;5093884;28;20198;-71
2022/04/02 00:23:44;;;;;;;4.10;1.80;;;2.10;99.90;;;;;;5094709;28;20201;-72
2022/04/02 00:26:14;;;;;;;4.67;1.73;;;2.00;1.00;;;;;;5094475;28;20577;-71
2022/04/02 00:28:42;;;;;;;2.87;2.03;;;2.10;99.90;;;;;;5093682;28;20229;-71
2022/04/02 00:31:11;;;;;;;3.30;1.97;;;2.00;1.00;;;;;;5095034;28;20216;-71
2022/04/02 00:33:39;;;;;;;2.30;1.50;;;2.10;1.00;;;;;;5094580;28;20194;-71
2022/04/02 00:36:07;;;;;;;2.90;1.80;;;2.00;1.00;;;;;;5093900;28;20587;-71
2022/04/02 00:38:34;;;;;;;3.43;1.30;;;2.10;1.00;;;;;;5093303;28;20222;-72
2022/04/02 00:41:01;;;;;;;5.00;2.23;;;2.10;1.00;;;;;;5093595;28;20255;-71
2022/04/02 00:43:31;;;;;;;4.07;2.00;;;2.10;1.00;;;;;;5094053;28;20198;-72
2022/04/02 00:45:59;;;;;;;3.43;2.00;;;2.00;99.90;;;;;;5093189;28;20656;-72
2022/04/02 00:48:28;;;;;;;4.17;1.70;;;2.00;99.90;;;;;;5093335;28;20208;-71
2022/04/02 00:50:56;;;;;;;2.80;1.70;;;2.10;1.00;;;;;;5093820;28;20205;-71
2022/04/02 00:53:24;;;;;;;3.73;1.70;;;2.10;99.90;;;;;;5093724;28;20220;-71
2022/04/02 00:55:52;;;;;;;2.30;1.70;;;2.00;99.90;;;;;;5093159;28;20201;-72
2022/04/02 00:58:18;;;;;;;1.53;1.43;;;2.00;1.00;;;;;;5094092;28;20221;-71
2022/04/02 01:00:47;;;;;;;2.07;1.50;;;2.00;1.00;;;;;;5093850;28;20288;-71
2022/04/02 01:03:16;;;;;;;2.90;1.70;;;2.00;1.00;;;;;;5094243;28;20210;-71
2022/04/02 01:05:43;;;;;;;2.57;1.80;;;1.90;1.00;;;;;;5092899;28;20197;-72
2022/04/02 01:08:10;;;;;;;2.63;1.67;;;1.90;99.90;;;;;;5093535;28;20194;-72
2022/04/02 01:10:39;;;;;;;2.67;1.77;;;1.90;56.10;;;;;;5094268;28;20550;-71
2022/04/02 01:13:07;;;;;;;2.53;1.77;;;1.90;1.00;;;;;;5092847;28;20194;-71
2022/04/02 01:15:34;;;;;;;3.23;2.03;;;1.90;1.00;;;;;;5092652;28;20683;-71
2022/04/02 01:18:02;;;;;;;2.33;1.50;;;1.90;1.00;;;;;;5093611;28;20206;-71
2022/04/02 01:20:30;;;;;;;2.20;1.80;;;1.90;1.00;;;;;;5092612;28;20687;-71
2022/04/02 01:22:59;;;;;;;5.03;1.80;;;1.90;1.00;;;;;;5093865;28;20288;-71
2022/04/02 01:25:31;;;;;;;3.47;1.70;;;1.80;1.00;;;;;;5093127;28;20607;-71
2022/04/02 01:27:58;;;;;;;2.93;2.17;;;1.80;1.00;;;;;;5091865;28;20584;-71
2022/04/02 01:30:25;;;;;;;4.97;2.10;;;1.70;1.00;;;;;;5093556;28;20198;-71
2022/04/02 01:32:52;;;;;;;4.23;2.17;;;1.70;1.00;;;;;;5092651;28;20198;-71
2022/04/02 01:35:21;;;;;;;2.60;1.63;;;1.70;1.00;;;;;;5092689;28;20203;-72
2022/04/02 01:37:48;;;;;;;3.47;2.10;;;1.70;1.00;;;;;;5092187;28;20328;-72
2022/04/02 01:40:17;;;;;;;4.03;1.83;;;1.70;1.00;;;;;;5093185;28;20583;-71
2022/04/02 01:42:43;;;;;;;2.83;1.80;;;1.70;1.00;;;;;;5092919;28;20315;-71
2022/04/02 01:45:11;;;;;;;2.10;1.73;;;1.70;99.90;;;;;;5093039;28;20201;-71
2022/04/02 01:47:38;;;;;;;4.03;1.97;;;1.60;1.00;;;;;;5092639;28;20229;-72
2022/04/02 01:50:06;;;;;;;3.70;1.80;;;1.60;1.00;;;;;;5091902;28;20190;-71
2022/04/02 01:52:33;;;;;;;2.70;2.13;;;1.60;1.00;;;;;;5092118;28;20388;-71
2022/04/02 01:55:00;;;;;;;3.47;2.10;;;1.70;1.00;;;;;;5092368;28;20201;-71
2022/04/02 01:57:28;;;;;;;2.50;1.97;;;1.60;1.00;;;;;;5092685;28;20248;-72
2022/04/02 01:59:55;;;;;;;4.27;1.90;;;1.60;1.00;;;;;;5092183;28;20647;-71
2022/04/02 02:02:22;;;;;;;5.87;1.93;;;1.50;1.00;;;;;;5092505;28;20202;-71
2022/04/02 02:04:49;;;;;;;6.17;1.90;;;1.50;1.00;;;;;;5092949;28;20656;-71
2022/04/02 02:07:16;;;;;;;6.13;2.63;;;1.50;1.00;;;;;;5092151;28;20201;-71
2022/04/02 02:09:43;;;;;;;4.60;2.07;;;1.50;99.90;;;;;;5091651;28;20214;-71
2022/04/02 02:12:11;;;;;;;4.80;1.90;;;1.40;92.90;;;;;;5092240;28;20205;-71
2022/04/02 02:14:39;;;;;;;4.37;2.20;;;1.40;99.90;;;;;;5092765;28;20566;-71
2022/04/02 02:17:06;;;;;;;5.17;2.10;;;1.40;99.90;;;;;;5091915;28;20206;-71
2022/04/02 02:19:33;;;;;;;4.77;2.50;;;1.40;1.00;;;;;;5092470;28;20197;-71
2022/04/02 02:22:00;;;;;;;2.87;2.23;;;1.40;1.00;;;;;;5091848;28;20213;-72
2022/04/02 02:24:28;;;;;;;6.70;2.40;;;1.40;99.90;;;;;;5091940;28;20194;-73
2022/04/02 02:26:55;;;;;;;3.60;2.53;;;1.40;99.90;;;;;;5092121;28;20622;-71
2022/04/02 02:29:22;;;;;;;4.57;2.60;;;1.40;99.90;;;;;;5091052;28;20667;-71
2022/04/02 02:31:50;;;;;;;4.30;2.10;;;1.20;1.00;;;;;;5091891;28;20283;-72
2022/04/02 02:37:01;;;;;;;8.10;2.47;;;1.30;1.00;;;;;;5091017;28;20209;-71
2022/04/02 02:39:28;;;;;;;5.10;1.90;;;1.20;1.00;;;;;;5091685;28;20213;-72
2022/04/02 02:41:54;;;;;;;4.07;2.30;;;1.20;99.90;;;;;;5091643;28;20627;-72
2022/04/02 02:44:21;;;;;;;6.07;2.80;;;1.20;1.00;;;;;;5091853;28;20198;-72
2022/04/02 02:46:49;;;;;;;5.77;3.37;;;1.20;99.90;;;;;;5092200;28;20355;-72
2022/04/02 02:49:16;;;;;;;5.53;2.67;;;1.20;1.00;;;;;;5091496;28;20220;-72
2022/04/02 02:51:44;;;;;;;4.80;2.67;;;1.20;1.00;;;;;;5092112;28;20232;-72
2022/04/02 02:54:11;;;;;;;3.03;2.30;;;1.10;1.00;;;;;;5090279;28;20194;-72
2022/04/02 02:56:38;;;;;;;5.10;1.83;;;1.10;71.80;;;;;;5090430;28;20572;-72
2022/04/02 02:59:05;;;;;;;3.47;2.37;;;1.10;1.00;;;;;;5096646;28;20223;-71
2022/04/02 03:01:33;;;;;;;4.77;2.93;;;1.10;1.00;;;;;;5093987;28;20197;-71
2022/04/02 03:04:01;;;;;;;5.57;2.40;;;1.10;99.90;;;;;;5092278;28;20262;-71
2022/04/02 03:06:28;;;;;;;6.60;2.70;;;1.00;1.00;;;;;;5091687;28;20206;-73
2022/04/02 03:08:55;;;;;;;4.27;2.37;;;1.00;1.00;;;;;;5091503;28;20206;-72
2022/04/02 03:11:22;;;;;;;8.07;2.90;;;1.00;98.90;;;;;;5091317;28;20211;-72
2022/04/02 03:13:48;;;;;;;2.93;2.60;;;1.00;99.90;;;;;;5091460;28;20555;-72
2022/04/02 03:16:16;;;;;;;7.10;2.63;;;1.00;1.00;;;;;;5091544;28;20208;-71
2022/04/02 03:18:42;;;;;;;4.97;2.60;;;1.00;1.00;;;;;;5091534;28;20660;-72
2022/04/02 03:21:11;;;;;;;4.63;2.70;;;1.00;1.00;;;;;;5091993;28;20193;-72
2022/04/02 03:23:37;;;;;;;3.00;2.10;;;0.90;99.90;;;;;;5090672;28;20202;-72
2022/04/02 03:26:04;;;;;;;9.23;2.83;;;0.90;1.00;;;;;;5092136;28;20652;-72
2022/04/02 03:28:32;;;;;;;6.37;2.57;;;0.90;99.90;;;;;;5091378;28;20196;-72
2022/04/02 03:30:59;;;;;;;5.23;2.90;;;0.90;99.90;;;;;;5092137;28;20202;-72
2022/04/02 03:33:26;;;;;;;4.77;2.27;;;0.90;1.00;;;;;;5092277;28;20205;-72
2022/04/02 03:35:53;;;;;;;4.83;2.50;;;0.80;1.00;;;;;;5091810;28;20667;-72
2022/04/02 03:38:21;;;;;;;4.10;2.10;;;0.80;1.00;;;;;;5091486;28;20217;-72
2022/04/02 03:40:48;;;;;;;6.47;2.73;;;0.80;1.00;;;;;;5091637;28;20202;-72
2022/04/02 03:43:15;;;;;;;4.27;2.00;;;0.80;1.00;;;;;;5091753;28;20649;-72
2022/04/02 03:45:42;;;;;;;3.53;2.47;;;0.80;99.90;;;;;;5091862;28;20201;-72
2022/04/02 03:48:09;;;;;;;3.80;2.53;;;0.80;1.00;;;;;;5091227;28;20197;-71
2022/04/02 03:50:36;;;;;;;6.00;2.60;;;0.80;1.00;;;;;;5091662;28;20194;-71
2022/04/02 03:53:02;;;;;;;4.77;2.73;;;0.80;99.90;;;;;;5095140;28;20202;-72
2022/04/02 03:55:31;;;;;;;3.80;2.77;;;0.80;1.00;;;;;;5095793;28;20193;-72
2022/04/02 03:57:58;;;;;;;6.23;2.80;;;0.70;1.00;;;;;;5095288;28;20221;-72
2022/04/02 04:00:25;;;;;;;7.03;2.67;;;0.70;99.90;;;;;;5095588;28;20205;-72
2022/04/02 04:02:52;;;;;;;5.13;2.73;;;0.60;99.90;;;;;;5095287;28;20197;-72
2022/04/02 04:05:19;;;;;;;4.83;3.13;;;0.60;99.90;;;;;;5095532;28;20293;-72
2022/04/02 04:07:46;;;;;;;6.23;2.83;;;0.60;99.90;;;;;;5095698;28;20198;-72
2022/04/02 04:10:13;;;;;;;4.40;2.77;;;0.60;99.90;;;;;;5095169;28;20839;-72
2022/04/02 04:12:42;;;;;;;5.83;2.70;;;0.60;45.00;;;;;;5095738;28;20206;-72
2022/04/02 04:15:09;;;;;;;5.33;2.87;;;0.60;1.00;;;;;;5095269;28;20640;-72
2022/04/02 04:17:36;;;;;;;5.50;2.63;;;0.60;1.00;;;;;;5095218;28;20255;-72
2022/04/02 04:20:04;;;;;;;6.40;3.03;;;0.60;1.00;;;;;;5094566;28;20228;-72
2022/04/02 04:22:31;;;;;;;5.80;2.70;;;0.50;1.00;;;;;;5095405;28;20204;-72
2022/04/02 04:24:58;;;;;;;7.83;3.40;;;0.50;1.00;;;;;;5095505;28;20644;-72
2022/04/02 04:27:24;;;;;;;6.77;3.57;;;0.60;99.90;;;;;;5095607;28;20296;-72
2022/04/02 04:29:53;;;;;;;4.77;2.87;;;0.50;1.00;;;;;;5094522;28;20208;-72
2022/04/02 04:32:19;;;;;;;4.80;3.17;;;0.50;1.00;;;;;;5095062;28;20672;-72
2022/04/02 04:34:46;;;;;;;6.50;3.20;;;0.40;1.00;;;;;;5095051;28;20209;-72
2022/04/02 04:37:13;;;;;;;4.67;2.93;;;0.40;7.60;;;;;;5095226;28;20224;-72
2022/04/02 04:39:40;;;;;;;5.33;3.37;;;0.50;99.90;;;;;;5094227;28;20228;-72
2022/04/02 04:42:07;;;;;;;5.00;2.97;;;0.40;73.50;;;;;;5094207;28;20198;-72
2022/04/02 04:44:34;;;;;;;6.40;3.17;;;0.40;99.90;;;;;;5094792;28;20204;-72
2022/04/02 04:47:02;;;;;;;6.17;3.00;;;0.50;92.70;;;;;;5094894;28;20652;-72
2022/04/02 04:49:29;;;;;;;4.43;2.37;;;0.40;99.90;;;;;;5094685;28;20675;-73
2022/04/02 04:51:56;;;;;;;6.50;3.13;;;0.40;1.00;;;;;;5094828;28;20208;-72
2022/04/02 04:54:23;;;;;;;8.23;3.27;;;0.50;1.00;;;;;;5094648;28;20208;-72
2022/04/02 04:56:50;;;;;;;6.07;3.13;;;0.40;1.00;;;;;;5094592;28;20211;-72
2022/04/02 04:59:16;;;;;;;6.13;3.03;;;0.50;99.90;;;;;;5093892;28;20216;-72
2022/04/02 05:01:43;;;;;;;5.80;3.30;;;0.50;1.00;;;;;;5094223;28;20671;-72
2022/04/02 05:04:11;;;;;;;5.57;3.03;;;0.50;99.90;;;;;;5093340;28;20197;-72
2022/04/02 05:06:39;;;;;;;5.53;3.00;;;0.50;14.40;;;;;;5094706;28;20271;-72
2022/04/02 05:09:06;;;;;;;5.37;3.00;;;0.50;1.00;;;;;;5093946;28;20584;-72
2022/04/02 05:11:34;;;;;;;10.13;3.40;;;0.60;1.00;;;;;;5094243;28;20660;-71
2022/04/02 05:14:01;;;;;;;7.60;3.27;;;0.50;1.00;;;;;;5094298;28;20209;-72
2022/04/02 05:16:28;;;;;;;5.90;3.60;;;0.50;16.90;;;;;;5094033;28;20208;-72
2022/04/02 05:18:56;;;;;;;7.37;3.23;;;0.60;1.00;;;;;;5093623;28;20312;-72
2022/04/02 05:21:24;;;;;;;7.70;3.30;;;0.60;99.90;;;;;;5094050;28;20232;-72
2022/04/02 05:23:51;;;;;;;6.80;3.17;;;0.70;1.00;;;;;;5094239;28;20218;-72
2022/04/02 05:26:19;;;;;;;6.03;2.90;;;0.70;99.90;;;;;;5093884;28;20200;-72
2022/04/02 05:28:45;;;;;;;5.30;2.90;;;0.70;1.00;;;;;;5093438;28;20198;-72
2022/04/02 05:31:12;;;;;;;6.20;2.80;;;0.70;1.00;;;;;;5093468;28;20198;-72
2022/04/02 05:33:39;;;;;;;6.50;2.40;;;0.70;99.90;;;;;;5094200;28;20197;-72
2022/04/02 05:36:06;;;;;;;6.27;2.93;;;0.80;99.90;;;;;;5093697;28;20571;-72
2022/04/02 05:38:34;;;;;;;7.40;3.10;;;0.80;1.00;;;;;;5093442;28;20560;-73
2022/04/02 05:41:01;;;;;;;4.47;2.97;;;0.80;1.00;;;;;;5093417;28;20202;-72
2022/04/02 05:43:29;;;;;;;4.77;2.90;;;0.90;1.00;;;;;;5093614;28;20201;-73
2022/04/02 05:45:56;;;;;;;4.53;2.80;;;1.00;99.90;;;;;;5093280;28;20230;-72
2022/04/02 05:48:24;;;;;;;4.40;2.30;;;0.90;27.30;;;;;;5093186;28;20204;-72
2022/04/02 05:50:51;;;;;;;5.03;2.50;;;1.00;1.00;;;;;;5093412;28;20202;-72
2022/04/02 05:53:18;;;;;;;5.53;2.80;;;1.00;1.00;;;;;;5093766;28;20208;-72
2022/04/02 05:55:48;;;;;;;4.37;2.77;;;1.00;1.00;;;;;;5093134;28;20604;-72
2022/04/02 05:58:16;;;;;;;6.23;3.07;;;1.00;1.00;;;;;;5092924;28;20205;-72
2022/04/02 06:00:43;;;;;;;5.73;2.93;;;1.00;1.00;;;;;;5093404;28;20676;-73
2022/04/02 06:03:10;;;;;;;6.47;3.10;;;1.00;1.00;;;;;;5093459;28;20294;-72
2022/04/02 06:05:37;;;;;;;7.50;3.40;;;1.10;1.00;;;;;;5093121;28;20201;-72
2022/04/02 06:08:04;;;;;;;5.73;3.40;;;1.00;1.00;;;;;;5092491;28;20197;-72
2022/04/02 06:10:31;;;;;;;8.20;3.40;;;1.10;1.00;;;;;;5092874;28;20204;-72
2022/04/02 06:13:01;;;;;;;6.07;3.40;;;1.00;99.90;;;;;;5093599;28;20205;-72
2022/04/02 06:15:28;;;;;;;6.73;3.10;;;1.10;99.90;;;;;;5092453;28;20200;-73
2022/04/02 06:17:54;;;;;;;6.67;2.93;;;1.10;1.00;;;;;;5092838;28;20205;-73
2022/04/02 06:20:21;;;;;;;7.30;3.27;;;1.20;1.00;;;;;;5092832;28;20224;-72
2022/04/02 06:22:48;;;;;;;8.43;3.23;;;1.20;79.60;;;;;;5092554;28;20656;-72
2022/04/02 06:25:15;;;;;;;5.37;3.10;;;1.20;99.90;;;;;;5092810;28;20569;-72
2022/04/02 06:27:43;;;;;;;8.00;3.60;;;1.20;1.00;;;;;;5092771;28;20197;-72
2022/04/02 06:30:15;;;;;;;5.80;3.20;;;1.20;1.00;;;;;;5092334;28;20656;-73
2022/04/02 06:32:42;;;;;;;7.80;2.90;;;1.20;1.00;;;;;;5093022;28;20197;-73
2022/04/02 06:35:09;;;;;;;5.97;3.30;;;1.20;1.00;;;;;;5092472;28;20625;-73
2022/04/02 06:37:37;;;;;;;5.73;3.23;;;1.30;1.00;;;;;;5092532;28;20201;-73
2022/04/02 06:40:06;;;;;;;5.30;2.80;;;1.30;1.00;;;;;;5092037;28;20667;-73
2022/04/02 06:42:33;;;;;;;5.70;3.10;;;1.30;99.90;;;;;;5092337;28;20280;-73
2022/04/02 06:45:01;;;;;;;6.30;3.20;;;1.40;99.90;;;;;;5092272;28;20200;-73
2022/04/02 06:47:31;;;;;;;6.73;3.40;;;1.40;1.00;;;;;;5092162;28;20198;-73
2022/04/02 06:49:58;;;;;;;7.03;3.13;;;1.40;1.00;;;;;;5091883;28;20197;-73
2022/04/02 06:52:25;;;;;;;6.77;3.57;;;1.40;48.70;;;;;;5092481;28;20208;-73
2022/04/02 06:54:52;;;;;;;7.80;3.13;;;1.50;2.70;;;;;;5092284;28;20193;-73
2022/04/02 06:57:20;;;;;;;7.70;3.13;;;1.50;1.00;;;;;;5092467;28;20205;-73
2022/04/02 06:59:47;;;;;;;8.87;3.33;;;1.50;99.90;;;;;;5091716;28;20263;-73
2022/04/02 07:02:14;;;;;;;9.17;4.00;;;1.50;99.90;;;;;;5091828;28;20640;-72
2022/04/02 07:04:43;;;;;;;7.07;3.23;;;1.60;75.50;;;;;;5091940;28;20226;-72
2022/04/02 07:07:10;;;;;;;6.00;2.80;;;1.60;1.00;;;;;;5092571;28;20202;-72
2022/04/02 07:09:37;;;;;;;3.30;2.60;;;1.60;1.00;;;;;;5091568;28;20198;-72
2022/04/02 07:12:05;;;;;;;4.63;3.13;;;1.60;1.00;;;;;;5092134;28;20193;-72
2022/04/02 07:14:32;;;;;;;6.17;2.60;;;1.60;1.00;;;;;;5091964;28;20209;-73
2022/04/02 07:16:59;;;;;;;8.10;3.13;;;1.70;1.00;;;;;;5092190;28;20648;-72
2022/04/02 07:19:26;;;;;;;6.87;3.63;;;1.70;1.00;;;;;;5091223;28;20221;-72
2022/04/02 07:21:56;;;;;;;5.37;3.10;;;1.80;1.00;;;;;;5072214;28;20224;-72
2022/04/02 07:24:23;;;;;;;5.43;3.40;;;1.80;1.00;;;;;;5087311;28;20198;-73
2022/04/02 07:26:50;;;;;;;7.00;3.20;;;1.90;1.00;;;;;;5093498;28;20197;-72
2022/04/02 07:29:17;;;;;;;7.03;3.43;;;1.90;1.00;;;;;;5095475;28;20759;-72
2022/04/02 07:31:45;;;;;;;6.23;3.07;;;1.90;99.90;;;;;;5095951;28;20322;-73
2022/04/02 07:34:12;;;;;;;5.20;3.10;;;1.90;1.00;;;;;;5096204;28;20206;-73
2022/04/02 07:36:50;;;;;;;5.40;3.00;;;2.00;1.00;;;;;;5096228;28;20692;-72
2022/04/02 07:39:23;;;;;;;4.53;3.07;;;2.10;99.90;;;;;;5095059;28;20245;-73
2022/04/02 07:42:01;;;;;;;9.63;3.87;;;2.00;99.90;;;;;;5095879;28;20338;-72
2022/04/02 07:44:33;;;;;;;6.10;3.87;;;2.10;1.00;;;;;;5095295;28;20208;-73
2022/04/02 07:47:00;;;;;;;8.03;3.83;;;2.10;99.90;;;;;;5096086;28;20201;-73
2022/04/02 07:49:33;;;;;;;7.50;3.80;;;2.10;99.90;;;;;;5095517;28;20201;-73
2022/04/02 07:52:01;;;;;;;6.77;3.23;;;2.20;1.00;;;;;;5095557;28;20605;-72
2022/04/02 07:54:32;;;;;;;4.23;2.93;;;2.30;99.90;;;;;;5095937;28;20212;-72
2022/04/02 07:57:03;;;;;;;5.00;3.00;;;2.10;99.90;;;;;;5095993;28;20686;-72
2022/04/02 07:59:34;;;;;;;9.13;2.97;;;2.20;99.90;;;;;;5095391;28;20221;-73
2022/04/02 08:02:02;;;;;;;5.60;3.17;;;2.30;1.00;;;;;;5095797;28;20205;-72
2022/04/02 08:04:29;;;;;;;3.27;2.77;;;2.40;99.90;;;;;;5095904;28;20209;-72
2022/04/02 08:06:56;;;;;;;6.00;3.33;;;2.30;53.80;;;;;;5095600;28;20206;-73
2022/04/02 08:09:25;;;;;;;6.37;3.40;;;2.30;99.90;;;;;;5095276;28;20202;-73
2022/04/02 08:11:54;;;;;;;7.37;3.20;;;2.40;1.00;;;;;;5095667;28;20198;-73
2022/04/02 08:14:23;;;;;;;5.70;3.17;;;2.40;1.00;;;;;;5095686;28;20262;-73
2022/04/02 08:16:50;;;;;;;4.83;3.17;;;2.40;1.00;;;;;;5095458;28;20197;-72
2022/04/02 08:19:21;;;;;;;6.93;3.30;;;2.60;99.90;;;;;;5094976;28;20208;-72
2022/04/02 08:21:48;;;;;;;4.30;2.30;;;2.50;99.90;;;;;;5095684;28;20205;-72
2022/04/02 08:24:15;;;;;;;5.03;2.80;;;2.60;1.00;;;;;;5095698;28;20292;-73
2022/04/02 08:26:56;;;;;;;5.10;3.30;;;2.60;1.00;;;;;;5095280;28;20202;-72
2022/04/02 08:29:51;;;;;;;3.77;2.93;;;2.80;1.00;;;;;;5095008;28;20648;-73
2022/04/02 08:32:30;;;;;;;4.97;2.73;;;2.80;99.90;;;;;;5095348;28;20656;-73
2022/04/02 08:35:05;;;;;;;5.33;3.33;;;2.80;1.00;;;;;;5095186;28;20202;-73
2022/04/02 08:37:46;;;;;;;6.03;2.80;;;2.80;99.90;;;;;;5094901;28;20201;-72
2022/04/02 08:40:31;;;;;;;7.03;2.60;;;2.90;99.90;;;;;;5094475;28;20221;-73
2022/04/02 08:43:48;;;;;;;4.77;2.63;;;2.90;1.00;;;;;;5095192;28;20206;-73
2022/04/02 08:46:33;;;;;;;4.80;2.90;;;2.90;99.90;;;;;;5095137;28;20205;-72
2022/04/02 08:49:06;;;;;;;5.43;3.10;;;3.20;1.00;;;;;;5094630;28;20197;-72
2022/04/02 08:51:42;;;;;;;8.13;3.43;;;3.20;1.00;;;;;;5094921;28;20201;-72
2022/04/02 08:54:24;;;;;;;3.60;2.70;;;3.10;1.00;;;;;;5095086;28;20217;-73
2022/04/02 08:56:56;;;;;;;3.63;1.83;;;3.30;99.90;;;;;;5094721;28;20258;-72
2022/04/02 08:59:35;;;;;;;4.70;2.90;;;3.20;1.00;;;;;;5094452;28;20206;-73
2022/04/02 09:02:38;;;;;;;5.97;2.90;;;3.40;1.00;;;;;;5094845;28;20203;-72
2022/04/02 09:05:11;;;;;;;5.83;2.67;;;3.50;1.00;;;;;;5094483;28;20214;-72
2022/04/02 09:08:17;;;;;;;3.63;2.43;;;3.50;1.00;;;;;;5094683;28;20190;-72
2022/04/02 09:11:17;;;;;;;4.67;2.53;;;3.60;1.00;;;;;;5085129;28;20215;-73
2022/04/02 09:14:08;;;;;;;6.27;3.10;;;3.80;1.00;;;;;;5094375;28;20201;-73
2022/04/02 09:16:42;;;;;;;3.97;2.53;;;3.90;99.90;;;;;;5094613;28;20675;-73
2022/04/02 09:19:15;;;;;;;5.50;2.20;;;4.10;1.00;;;;;;5075509;28;20197;-72
2022/04/02 09:22:03;;;;;;;4.27;2.80;;;4.00;1.00;;;;;;5094306;28;20228;-72
2022/04/02 09:25:00;;;;;;;7.93;3.03;;;4.00;1.00;;;;;;5093851;28;20202;-72
2022/04/02 09:27:51;;;;;;;6.77;3.00;;;4.20;1.00;;;;;;5094296;28;20205;-72
2022/04/02 09:30:25;;;;;;;4.60;2.30;;;4.50;56.20;;;;;;5094025;28;20205;-73
2022/04/02 09:33:21;;;;;;;3.50;2.23;;;4.30;1.00;;;;;;5094008;28;20201;-73
2022/04/02 09:36:11;;;;;;;5.10;2.70;;;4.20;1.00;;;;;;5094070;28;20656;-73
2022/04/02 09:39:04;;;;;;;2.37;2.03;;;4.20;1.00;;;;;;5093407;28;20205;-73
2022/04/02 09:41:41;;;;;;;5.70;2.73;;;4.30;1.00;;;;;;5093909;28;20566;-73
2022/04/02 09:44:35;;;;;;;2.70;2.00;;;4.30;1.00;;;;;;5094073;28;20208;-73
2022/04/02 09:47:06;;;;;;;4.10;2.43;;;4.40;1.00;;;;;;5093685;28;20556;-73
2022/04/02 09:49:41;;;;;;;4.67;2.43;;;4.40;1.00;;;;;;5092891;28;20682;-73
2022/04/02 09:52:11;;;;;;;4.63;2.60;;;4.60;1.00;;;;;;5093788;28;20291;-73
2022/04/02 09:54:39;;;;;;;4.30;2.60;;;4.40;99.90;;;;;;5093653;28;20202;-73
2022/04/02 09:57:21;;;;;;;5.37;2.80;;;4.90;1.00;;;;;;5093605;28;20576;-73
2022/04/02 10:00:04;;;;;;;5.00;2.70;;;4.70;99.90;;;;;;5093333;28;20210;-73
2022/04/02 10:02:44;;;;;;;3.43;2.50;;;4.80;1.00;;;;;;5093340;28;20205;-73
2022/04/02 10:05:14;;;;;;;3.80;2.27;;;4.70;99.90;;;;;;5093453;28;20201;-73
2022/04/02 10:07:52;;;;;;;3.87;2.80;;;4.60;99.90;;;;;;5093335;28;20213;-73
2022/04/02 10:10:25;;;;;;;5.73;2.70;;;4.80;1.00;;;;;;5093614;28;20205;-73
2022/04/02 10:12:55;;;;;;;4.23;2.30;;;5.20;1.00;;;;;;5093353;28;20201;-73
2022/04/02 10:15:23;;;;;;;3.43;2.17;;;5.20;1.00;;;;;;5093297;28;20210;-73
2022/04/02 10:17:52;;;;;;;4.93;2.60;;;4.90;99.90;;;;;;5093148;28;20207;-73
2022/04/02 10:20:29;;;;;;;4.63;2.50;;;4.70;99.90;;;;;;5093675;28;20738;-73
2022/04/02 10:23:07;;;;;;;4.13;2.30;;;4.60;30.60;;;;;;5093267;28;20666;-73
2022/04/02 10:25:42;;;;;;;3.70;2.50;;;4.80;99.90;;;;;;5093336;28;20227;-71
2022/04/02 10:28:14;;;;;;;3.83;2.57;;;4.80;1.00;;;;;;5092722;28;20201;-71
2022/04/02 10:30:45;;;;;;;4.63;2.60;;;5.20;99.90;;;;;;5092994;28;20296;-70
2022/04/02 10:33:27;;;;;;;3.47;2.47;;;4.90;99.90;;;;;;5093240;28;20201;-70
2022/04/02 10:35:58;;;;;;;4.03;2.83;;;4.70;99.90;;;;;;5093057;28;20664;-70
2022/04/02 10:38:37;;;;;;;4.53;2.37;;;4.70;99.90;;;;;;5092432;28;20205;-71
2022/04/02 10:41:08;;;;;;;3.50;2.70;;;4.50;99.90;;;;;;5092622;28;20252;-70
2022/04/02 10:43:42;;;;;;;4.80;2.57;;;4.50;99.90;;;;;;5092877;28;20289;-70
2022/04/02 10:46:09;;;;;;;3.83;3.10;;;4.60;39.10;;;;;;5093000;28;20204;-70
2022/04/02 10:49:00;;;;;;;5.90;2.87;;;4.90;99.90;;;;;;5092444;28;20292;-70
2022/04/02 10:51:28;;;;;;;3.13;2.20;;;4.80;99.90;;;;;;5092689;28;20676;-70
2022/04/02 10:54:13;;;;;;;7.60;3.50;;;4.80;99.90;;;;;;5092890;28;20205;-70
2022/04/02 10:56:49;;;;;;;4.70;3.43;;;4.80;75.00;;;;;;5092862;28;20213;-71
2022/04/02 10:59:19;;;;;;;3.27;2.47;;;4.90;11.30;;;;;;5092250;28;20251;-70
2022/04/02 11:01:54;;;;;;;3.97;2.37;;;4.90;40.80;;;;;;5092491;28;20225;-70
2022/04/02 11:04:30;;;;;;;4.23;2.77;;;4.90;78.90;;;;;;5092512;28;20211;-70
2022/04/02 11:07:00;;;;;;;4.17;2.47;;;5.00;37.90;;;;;;5092647;28;20676;-70
2022/04/02 11:09:36;;;;;;;3.80;2.60;;;5.00;1.00;;;;;;5092136;28;20236;-70
2022/04/02 11:12:07;;;;;;;3.10;2.50;;;4.90;31.90;;;;;;5092998;28;20197;-70
2022/04/02 11:14:39;;;;;;;2.60;2.40;;;4.70;1.00;;;;;;5092283;28;20201;-70
2022/04/02 11:17:11;;;;;;;4.60;2.60;;;4.70;1.00;;;;;;5092671;28;20241;-70
2022/04/02 11:19:56;;;;;;;5.20;2.73;;;4.80;1.00;;;;;;5092069;28;20270;-71
2022/04/02 11:22:28;;;;;;;4.47;3.10;;;4.90;96.80;;;;;;5092420;28;20715;-70
2022/04/02 11:25:14;;;;;;;3.57;2.60;;;4.70;99.90;;;;;;5092201;28;20210;-70
2022/04/02 11:27:48;;;;;;;4.80;2.97;;;4.90;99.90;;;;;;5092614;28;20206;-71
2022/04/02 11:30:17;;;;;;;5.73;3.00;;;5.10;99.90;;;;;;5091847;28;20198;-71
2022/04/02 11:32:45;;;;;;;7.47;3.33;;;4.90;31.90;;;;;;5092250;28;20216;-70
2022/04/02 11:35:18;;;;;;;5.57;3.07;;;5.20;1.00;;;;;;5092328;28;20716;-70
2022/04/02 11:38:17;;;;;;;5.23;2.80;;;5.10;13.80;;;;;;5092506;28;20213;-71
2022/04/02 11:40:52;;;;;;;3.60;2.50;;;5.20;1.00;;;;;;5092360;28;20225;-70
2022/04/02 11:43:33;;;;;;;4.27;2.83;;;5.20;1.00;;;;;;5092296;28;20209;-70
2022/04/02 11:46:07;;;;;;;4.27;2.70;;;5.50;1.00;;;;;;5074506;28;20296;-70
2022/04/02 11:48:35;;;;;;;3.30;2.30;;;5.40;1.00;;;;;;5091946;28;20212;-70
2022/04/02 11:51:15;;;;;;;4.53;2.63;;;5.50;1.00;;;;;;5092080;28;20208;-70
2022/04/02 11:53:42;;;;;;;3.97;2.30;;;5.90;1.00;;;;;;5092163;28;20202;-71
2022/04/02 11:56:37;;;;;;;3.20;2.37;;;6.10;1.00;;;;;;5091948;28;20190;-70
2022/04/02 11:59:07;;;;;;;3.60;2.63;;;6.00;1.00;;;;;;5091946;28;20848;-70
2022/04/02 12:01:44;;;;;;;3.17;2.47;;;5.80;1.00;;;;;;5092173;28;20216;-70
2022/04/02 12:04:16;;;;;;;3.90;2.77;;;6.20;1.00;;;;;;5092060;28;20205;-70
2022/04/02 12:06:46;;;;;;;4.47;2.63;;;6.10;1.00;;;;;;5092151;28;20190;-71
2022/04/02 12:09:17;;;;;;;4.37;2.60;;;5.90;1.00;;;;;;5091676;28;20209;-71
2022/04/02 12:11:52;;;;;;;5.37;2.70;;;5.80;1.00;;;;;;5091980;28;20205;-70
2022/04/02 12:14:30;;;;;;;2.93;2.33;;;5.70;1.00;;;;;;5095615;28;20233;-71
2022/04/02 12:17:02;;;;;;;5.07;2.63;;;5.70;1.00;;;;;;5095517;28;20241;-71
2022/04/02 12:19:45;;;;;;;2.97;2.23;;;5.90;1.00;;;;;;5094795;28;20287;-71
2022/04/02 12:22:25;;;;;;;4.37;2.70;;;5.60;1.00;;;;;;5094915;28;20233;-70
2022/04/02 12:24:57;;;;;;;5.17;3.17;;;5.60;1.00;;;;;;5095593;28;20539;-71
2022/04/02 12:27:28;;;;;;;3.30;2.60;;;5.90;1.00;;;;;;5095289;28;20539;-71
2022/04/02 12:30:07;;;;;;;2.40;1.93;;;6.20;1.00;;;;;;5095240;28;20228;-70
2022/04/02 12:32:35;;;;;;;3.57;2.60;;;6.00;1.00;;;;;;5093943;28;20205;-70
2022/04/02 12:35:08;;;;;;;3.70;2.40;;;6.00;1.00;;;;;;5095364;28;20277;-70
2022/04/02 12:37:45;;;;;;;4.63;2.40;;;5.90;1.00;;;;;;5095245;28;20201;-71
2022/04/02 12:40:18;;;;;;;3.17;2.50;;;6.60;1.00;;;;;;5094706;28;20210;-71
2022/04/02 12:42:47;;;;;;;4.13;2.60;;;6.50;1.00;;;;;;5095293;28;20350;-71
2022/04/02 12:45:19;;;;;;;3.93;2.80;;;6.70;1.00;;;;;;5094778;28;20206;-71
2022/04/02 12:48:03;;;;;;;4.47;2.87;;;6.20;1.00;;;;;;5093180;28;20543;-71
2022/04/02 12:50:35;;;;;;;2.53;2.17;;;6.00;1.00;;;;;;5095061;28;20190;-71
2022/04/02 12:53:11;;;;;;;3.60;2.50;;;6.00;1.00;;;;;;5094714;28;20223;-70
2022/04/02 12:55:45;;;;;;;4.17;2.30;;;6.20;1.00;;;;;;5095037;28;20542;-71
2022/04/02 12:58:13;;;;;;;3.77;2.60;;;6.60;1.00;;;;;;5093623;28;20198;-71
2022/04/02 13:00:43;;;;;;;2.93;2.37;;;6.30;1.00;;;;;;5094166;28;20212;-71
2022/04/02 13:03:32;;;;;;;4.30;2.80;;;6.60;1.00;;;;;;5095169;28;20762;-69
2022/04/02 13:06:05;;;;;;;2.70;2.30;;;6.80;1.00;;;;;;5094669;28;20205;-70
2022/04/02 13:08:40;;;;;;;3.67;2.73;;;7.10;1.00;;;;;;5093830;28;20572;-71
2022/04/02 13:11:13;;;;;;;3.43;2.30;;;6.80;1.00;;;;;;5094403;28;20313;-69
2022/04/02 13:13:48;;;;;;;3.30;2.43;;;6.90;1.00;;;;;;5093924;28;20204;-71
2022/04/02 13:16:22;;;;;;;4.20;2.30;;;7.10;1.00;;;;;;5094265;28;20207;-71
2022/04/02 13:22:02;;;;;;;3.70;2.47;;;6.80;1.00;;;;;;5000163;28;20243;-70
2022/04/02 13:24:54;;;;;;;3.07;2.70;;;6.60;1.00;;;;;;5073485;28;20214;-70
2022/04/02 13:28:12;;;;;;;3.33;2.70;;;6.40;1.00;;;;;;5092434;28;20206;-71
2022/04/02 13:30:44;;;;;;;3.13;2.17;;;6.30;1.00;;;;;;5091976;28;20797;-70